createdAt,value
2022-07-30T00:01:42.852Z,18.90
2022-07-30T00:04:10.087Z,18.90
2022-07-30T00:06:37.952Z,18.80
2022-07-30T00:09:04.840Z,18.80
2022-07-30T00:11:31.705Z,18.70
2022-07-30T00:13:58.567Z,18.80
2022-07-30T00:16:25.670Z,18.80
2022-07-30T00:18:52.553Z,18.80
2022-07-30T00:21:20.315Z,18.80
2022-07-30T00:24:04.122Z,18.80
2022-07-30T00:26:31.126Z,18.70
2022-07-30T00:28:58.208Z,18.60
2022-07-30T00:31:25.062Z,18.60
2022-07-30T00:33:51.971Z,18.50
2022-07-30T00:36:18.821Z,18.50
2022-07-30T00:38:45.766Z,18.50
2022-07-30T00:41:13.185Z,18.40
2022-07-30T00:43:43.162Z,18.40
2022-07-30T00:46:10.456Z,18.50
2022-07-30T00:48:37.621Z,18.40
2022-07-30T00:51:04.509Z,18.40
2022-07-30T00:53:31.377Z,18.40
2022-07-30T00:55:58.355Z,18.40
2022-07-30T00:58:25.365Z,18.30
2022-07-30T01:00:52.764Z,18.40
2022-07-30T01:03:20.084Z,18.20
2022-07-30T01:05:47.065Z,18.20
2022-07-30T01:08:13.991Z,18.10
2022-07-30T01:10:41.003Z,18.00
2022-07-30T01:13:08.302Z,18.00
2022-07-30T01:15:35.224Z,17.90
2022-07-30T01:18:05.283Z,18.00
2022-07-30T01:20:55.670Z,18.00
2022-07-30T01:23:32.636Z,18.00
2022-07-30T01:26:04.248Z,17.90
2022-07-30T01:28:35.889Z,17.90
2022-07-30T01:31:05.703Z,17.80
2022-07-30T01:33:37.410Z,17.80
2022-07-30T01:36:07.389Z,17.80
2022-07-30T01:38:36.482Z,17.80
2022-07-30T01:41:07.496Z,17.80
2022-07-30T01:43:35.747Z,17.90
2022-07-30T01:46:04.325Z,17.80
2022-07-30T01:48:35.028Z,17.90
2022-07-30T01:51:07.262Z,17.80
2022-07-30T01:53:37.885Z,17.70
2022-07-30T01:56:05.597Z,17.70
2022-07-30T01:58:39.123Z,17.70
2022-07-30T02:01:07.387Z,17.60
2022-07-30T02:03:35.419Z,17.70
2022-07-30T02:06:09.758Z,17.60
2022-07-30T02:09:11.211Z,17.60
2022-07-30T02:12:02.892Z,17.60
2022-07-30T02:14:47.838Z,17.70
2022-07-30T02:17:20.924Z,17.60
2022-07-30T02:19:51.063Z,17.60
2022-07-30T02:22:20.776Z,17.60
2022-07-30T02:24:52.084Z,17.60
2022-07-30T02:27:25.846Z,17.60
2022-07-30T02:29:55.763Z,17.50
2022-07-30T02:32:24.782Z,17.60
2022-07-30T02:35:00.263Z,17.60
2022-07-30T02:37:37.997Z,17.60
2022-07-30T02:40:14.557Z,17.60
2022-07-30T02:42:43.725Z,17.50
2022-07-30T02:45:11.890Z,17.60
2022-07-30T02:47:42.889Z,17.50
2022-07-30T02:50:10.970Z,17.50
2022-07-30T02:52:41.495Z,17.50
2022-07-30T02:55:11.044Z,17.40
2022-07-30T02:57:43.368Z,17.40
2022-07-30T03:00:12.053Z,17.40
2022-07-30T03:02:40.563Z,17.30
2022-07-30T03:05:11.602Z,17.30
2022-07-30T03:07:40.445Z,17.30
2022-07-30T03:10:08.595Z,17.20
2022-07-30T03:12:37.921Z,17.30
2022-07-30T03:15:05.381Z,17.40
2022-07-30T03:17:38.577Z,17.30
2022-07-30T03:20:09.401Z,17.40
2022-07-30T03:22:44.276Z,17.40
2022-07-30T03:25:18.144Z,17.40
2022-07-30T03:27:46.878Z,17.40
2022-07-30T03:30:14.014Z,17.40
2022-07-30T03:32:42.934Z,17.40
2022-07-30T03:35:16.921Z,17.40
2022-07-30T03:37:44.956Z,17.40
2022-07-30T03:40:13.470Z,17.40
2022-07-30T03:42:40.440Z,17.40
2022-07-30T03:45:08.847Z,17.40
2022-07-30T03:47:38.741Z,17.40
2022-07-30T03:50:08.773Z,17.30
2022-07-30T03:52:40.884Z,17.30
2022-07-30T03:55:09.907Z,17.40
2022-07-30T03:57:37.181Z,17.40
2022-07-30T04:00:12.799Z,17.40
2022-07-30T04:02:47.273Z,17.40
2022-07-30T04:05:15.288Z,17.50
2022-07-30T04:07:45.183Z,17.50
2022-07-30T04:10:13.143Z,17.60
2022-07-30T04:12:40.241Z,17.60
2022-07-30T04:16:35.519Z,17.70
2022-07-30T04:18:01.448Z,17.70
2022-07-30T04:20:34.634Z,17.70
2022-07-30T04:23:02.775Z,17.60
2022-07-30T04:25:30.504Z,17.60
2022-07-30T04:28:03.126Z,17.70
2022-07-30T04:30:33.408Z,17.80
2022-07-30T04:33:00.696Z,17.90
2022-07-30T04:35:50.787Z,17.90
2022-07-30T04:38:16.324Z,17.90
2022-07-30T04:40:43.248Z,18.00
2022-07-30T04:43:10.129Z,18.00
2022-07-30T04:45:39.022Z,18.00
2022-07-30T04:48:06.492Z,18.30
2022-07-30T04:50:35.399Z,18.30
2022-07-30T04:53:03.128Z,18.30
2022-07-30T04:55:31.681Z,18.30
2022-07-30T04:58:01.873Z,18.40
2022-07-30T05:00:32.333Z,18.50
2022-07-30T05:03:02.436Z,18.50
2022-07-30T05:05:32.542Z,18.50
2022-07-30T05:08:01.324Z,18.60
2022-07-30T05:10:28.501Z,18.50
2022-07-30T05:12:55.358Z,18.60
2022-07-30T05:15:22.236Z,18.80
2022-07-30T05:18:03.323Z,18.70
2022-07-30T05:20:30.145Z,18.70
2022-07-30T05:22:58.203Z,18.70
2022-07-30T05:25:25.039Z,18.80
2022-07-30T05:27:52.742Z,18.70
2022-07-30T05:30:19.748Z,18.80
2022-07-30T05:32:52.984Z,18.70
2022-07-30T05:35:20.194Z,18.80
2022-07-30T05:37:49.273Z,18.80
2022-07-30T05:40:16.243Z,18.70
2022-07-30T05:42:43.049Z,18.60
2022-07-30T05:45:10.214Z,18.60
2022-07-30T05:47:37.377Z,18.60
2022-07-30T05:50:05.513Z,18.60
2022-07-30T05:52:33.249Z,18.60
2022-07-30T05:55:00.150Z,18.50
2022-07-30T05:57:27.004Z,18.50
2022-07-30T05:59:53.858Z,18.50
2022-07-30T06:02:24.263Z,18.60
2022-07-30T06:04:52.053Z,18.60
2022-07-30T06:07:19.048Z,18.60
2022-07-30T06:09:45.941Z,18.80
2022-07-30T06:12:12.779Z,18.80
2022-07-30T06:14:39.695Z,18.90
2022-07-30T06:17:06.767Z,19.00
2022-07-30T06:19:33.697Z,19.10
2022-07-30T06:22:06.242Z,19.30
2022-07-30T06:24:34.152Z,19.30
2022-07-30T06:27:01.278Z,19.40
2022-07-30T06:29:28.611Z,19.50
2022-07-30T06:31:55.988Z,19.50
2022-07-30T06:34:22.910Z,19.60
2022-07-30T06:36:50.218Z,19.70
2022-07-30T06:39:57.391Z,19.80
2022-07-30T06:42:04.636Z,19.80
2022-07-30T06:44:31.630Z,19.90
2022-07-30T06:47:00.981Z,19.90
2022-07-30T06:49:33.172Z,20.00
2022-07-30T06:52:00.403Z,20.10
2022-07-30T06:54:27.431Z,20.20
2022-07-30T06:56:54.442Z,20.20
2022-07-30T06:59:21.439Z,20.20
2022-07-30T07:01:49.828Z,20.20
2022-07-30T07:04:16.892Z,20.30
2022-07-30T07:06:43.779Z,20.40
2022-07-30T07:09:11.318Z,20.40
2022-07-30T07:11:38.547Z,20.70
2022-07-30T07:14:05.455Z,20.80
2022-07-30T07:16:32.458Z,20.90
2022-07-30T07:18:59.277Z,21.00
2022-07-30T07:21:26.261Z,21.00
2022-07-30T07:23:53.542Z,21.10
2022-07-30T07:26:20.366Z,21.20
2022-07-30T07:28:47.317Z,21.30
2022-07-30T07:32:05.229Z,21.40
2022-07-30T07:34:01.686Z,21.60
2022-07-30T07:36:28.691Z,21.70
2022-07-30T07:38:55.601Z,22.10
2022-07-30T07:41:22.464Z,22.10
2022-07-30T07:43:49.302Z,22.20
2022-07-30T07:46:17.691Z,22.30
2022-07-30T07:49:01.177Z,22.50
2022-07-30T07:51:48.369Z,22.70
2022-07-30T07:54:21.967Z,22.80
2022-07-30T07:56:52.892Z,22.90
2022-07-30T07:59:35.227Z,22.80
2022-07-30T08:02:08.581Z,22.90
2022-07-30T08:04:36.174Z,23.00
2022-07-30T08:07:04.028Z,23.20
2022-07-30T08:09:44.259Z,23.20
2022-07-30T08:12:16.500Z,23.30
2022-07-30T08:14:43.529Z,23.60
2022-07-30T08:17:11.227Z,23.80
2022-07-30T08:19:38.127Z,23.80
2022-07-30T08:22:05.408Z,23.90
2022-07-30T08:24:33.143Z,24.30
2022-07-30T08:27:00.694Z,24.40
2022-07-30T08:29:30.380Z,24.50
2022-07-30T08:31:57.230Z,24.60
2022-07-30T08:34:25.861Z,24.60
2022-07-30T08:36:52.894Z,24.50
2022-07-30T08:39:19.800Z,24.50
2022-07-30T08:41:48.545Z,24.30
2022-07-30T08:44:18.786Z,24.10
2022-07-30T08:46:47.862Z,24.00
2022-07-30T08:49:15.122Z,23.90
2022-07-30T08:51:42.854Z,23.70
2022-07-30T08:54:10.005Z,23.80
2022-07-30T08:56:37.452Z,23.80
2022-07-30T08:59:04.930Z,23.80
2022-07-30T09:01:31.919Z,23.80
2022-07-30T09:03:58.932Z,23.90
2022-07-30T09:06:25.944Z,23.90
2022-07-30T09:08:53.424Z,23.70
2022-07-30T09:11:20.803Z,23.80
2022-07-30T09:13:48.487Z,23.90
2022-07-30T09:16:24.104Z,24.00
2022-07-30T09:18:53.016Z,24.00
2022-07-30T09:21:25.937Z,24.00
2022-07-30T09:24:06.184Z,24.10
2022-07-30T09:26:51.610Z,24.20
2022-07-30T09:29:23.910Z,24.20
2022-07-30T09:32:02.886Z,24.30
2022-07-30T09:34:40.189Z,24.10
2022-07-30T09:37:10.530Z,24.00
2022-07-30T09:39:41.924Z,24.00
2022-07-30T09:42:26.745Z,23.90
2022-07-30T09:45:08.555Z,23.80
2022-07-30T09:47:37.384Z,23.80
2022-07-30T09:50:10.103Z,23.60
2022-07-30T09:52:44.144Z,23.60
2022-07-30T09:55:35.761Z,23.50
2022-07-30T09:58:08.570Z,23.40
2022-07-30T10:00:37.101Z,23.30
2022-07-30T10:03:32.952Z,23.30
2022-07-30T10:06:01.282Z,23.00
2022-07-30T10:08:46.214Z,23.00
2022-07-30T10:11:24.624Z,23.00
2022-07-30T10:13:59.422Z,23.00
2022-07-30T10:16:29.461Z,22.80
2022-07-30T10:19:02.877Z,22.70
2022-07-30T10:21:32.609Z,22.70
2022-07-30T10:24:04.174Z,22.60
2022-07-30T10:26:35.217Z,22.60
2022-07-30T10:29:02.785Z,22.50
2022-07-30T10:31:49.243Z,22.40
2022-07-30T10:34:23.531Z,22.40
2022-07-30T10:37:01.014Z,22.40
2022-07-30T10:39:37.490Z,22.40
2022-07-30T10:42:25.959Z,22.40
2022-07-30T10:45:27.637Z,22.40
2022-07-30T10:47:56.433Z,22.30
2022-07-30T10:50:28.072Z,22.10
2022-07-30T10:52:58.787Z,22.20
2022-07-30T10:55:39.183Z,22.20
2022-07-30T10:58:09.798Z,22.20
2022-07-30T11:00:57.075Z,22.20
2022-07-30T11:03:40.566Z,22.20
2022-07-30T11:06:24.202Z,22.20
2022-07-30T11:08:51.987Z,22.10
2022-07-30T11:12:15.750Z,22.00
2022-07-30T11:14:12.932Z,21.90
2022-07-30T11:16:39.899Z,21.80
2022-07-30T11:19:56.105Z,21.80
2022-07-30T11:22:25.835Z,21.70
2022-07-30T11:24:53.342Z,21.70
2022-07-30T11:27:50.440Z,21.70
2022-07-30T11:30:17.924Z,21.60
2022-07-30T11:32:48.654Z,21.40
2022-07-30T11:35:17.086Z,21.30
2022-07-30T11:38:00.844Z,21.10
2022-07-30T11:40:34.648Z,21.00
2022-07-30T11:43:19.276Z,20.90
2022-07-30T11:46:10.769Z,20.60
2022-07-30T11:48:43.214Z,20.60
2022-07-30T11:51:10.822Z,20.40
2022-07-30T11:53:37.773Z,20.30
2022-07-30T11:56:04.819Z,20.10
2022-07-30T11:58:34.680Z,20.00
2022-07-30T12:01:09.021Z,20.00
2022-07-30T12:03:41.337Z,20.10
2022-07-30T12:06:18.094Z,20.00
2022-07-30T12:08:48.716Z,20.00
2022-07-30T12:11:15.692Z,19.90
2022-07-30T12:13:46.128Z,19.80
2022-07-30T12:16:17.467Z,19.70
2022-07-30T12:18:45.679Z,19.70
2022-07-30T12:21:13.623Z,19.70
2022-07-30T12:23:43.369Z,19.60
2022-07-30T12:26:22.425Z,19.60
2022-07-30T12:28:49.646Z,19.60
2022-07-30T12:31:16.981Z,19.60
2022-07-30T12:33:43.838Z,19.60
2022-07-30T12:36:23.186Z,19.70
2022-07-30T12:38:52.447Z,19.70
2022-07-30T12:41:19.316Z,19.70
2022-07-30T12:43:56.346Z,19.60
2022-07-30T12:46:26.678Z,19.70
2022-07-30T12:48:54.016Z,19.80
2022-07-30T12:51:24.205Z,19.80
2022-07-30T12:53:52.874Z,19.90
2022-07-30T12:56:28.050Z,19.90
2022-07-30T12:58:56.727Z,20.00
2022-07-30T13:01:42.560Z,20.00
2022-07-30T13:04:10.452Z,20.10
2022-07-30T13:06:38.163Z,20.30
2022-07-30T13:09:05.290Z,20.30
2022-07-30T13:11:39.805Z,20.30
2022-07-30T13:14:07.589Z,20.40
2022-07-30T13:16:36.015Z,20.40
2022-07-30T13:19:07.152Z,20.40
2022-07-30T13:21:34.802Z,20.40
2022-07-30T13:24:02.305Z,20.40
2022-07-30T13:26:31.935Z,20.40
2022-07-30T13:29:01.834Z,20.40
2022-07-30T13:31:29.315Z,20.50
2022-07-30T13:34:09.717Z,20.50
2022-07-30T13:36:36.593Z,20.40
2022-07-30T13:39:03.912Z,20.40
2022-07-30T13:41:30.855Z,20.40
2022-07-30T13:43:57.736Z,20.40
2022-07-30T13:46:24.589Z,20.30
2022-07-30T13:48:51.558Z,20.20
2022-07-30T13:51:18.822Z,20.10
2022-07-30T13:53:45.749Z,20.00
2022-07-30T13:56:13.222Z,20.00
2022-07-30T13:58:40.665Z,19.90
2022-07-30T14:01:07.704Z,19.80
2022-07-30T14:03:35.403Z,19.70
2022-07-30T14:06:10.645Z,19.60
2022-07-30T14:08:38.695Z,19.50
2022-07-30T14:11:05.616Z,19.40
2022-07-30T14:13:32.434Z,19.30
2022-07-30T14:15:59.461Z,19.30
2022-07-30T14:18:26.329Z,19.30
2022-07-30T14:20:53.833Z,19.30
2022-07-30T14:23:21.026Z,19.40
2022-07-30T14:25:47.949Z,19.40
2022-07-30T14:28:15.384Z,19.40
2022-07-30T14:30:42.663Z,19.40
2022-07-30T14:33:09.930Z,19.40
2022-07-30T14:35:37.127Z,19.50
2022-07-30T14:38:04.094Z,19.50
2022-07-30T14:40:30.994Z,19.60
2022-07-30T14:42:58.115Z,19.60
2022-07-30T14:45:28.605Z,19.60
2022-07-30T14:47:56.398Z,19.70
2022-07-30T14:50:23.385Z,19.70
2022-07-30T14:52:50.557Z,19.70
2022-07-30T14:55:17.632Z,19.60
2022-07-30T14:57:44.537Z,19.60
2022-07-30T15:00:11.990Z,19.60
2022-07-30T15:02:40.813Z,19.70
2022-07-30T15:05:09.102Z,19.70
2022-07-30T15:07:36.024Z,19.70
2022-07-30T15:10:03.437Z,19.80
2022-07-30T15:12:30.358Z,19.80
2022-07-30T15:14:57.339Z,19.80
2022-07-30T15:17:24.651Z,19.80
2022-07-30T15:19:51.720Z,19.70
2022-07-30T15:22:20.071Z,19.70
2022-07-30T15:24:48.434Z,19.70
2022-07-30T15:27:15.735Z,19.80
2022-07-30T15:29:42.999Z,19.80
2022-07-30T15:32:09.974Z,19.80
2022-07-30T15:34:37.094Z,19.80
2022-07-30T15:37:05.610Z,19.90
2022-07-30T15:39:33.667Z,19.90
2022-07-30T15:42:02.452Z,19.80
2022-07-30T15:44:30.027Z,19.80
2022-07-30T15:46:57.048Z,19.80
2022-07-30T15:49:24.208Z,19.80
2022-07-30T15:51:51.882Z,19.80
2022-07-30T15:54:23.316Z,19.70
2022-07-30T15:56:53.759Z,19.70
2022-07-30T15:59:22.437Z,19.70
2022-07-30T16:01:49.578Z,19.70
2022-07-30T16:04:19.715Z,19.60
2022-07-30T16:06:48.018Z,19.60
2022-07-30T16:09:17.731Z,19.60
2022-07-30T16:11:44.597Z,19.50
2022-07-30T16:14:13.822Z,19.50
2022-07-30T16:16:40.818Z,19.50
2022-07-30T16:19:07.776Z,19.50
2022-07-30T16:21:35.961Z,19.50
2022-07-30T16:24:03.762Z,19.50
2022-07-30T16:26:31.199Z,19.40
2022-07-30T16:28:58.073Z,19.50
2022-07-30T16:31:24.933Z,19.40
2022-07-30T16:33:51.805Z,19.40
2022-07-30T16:36:18.655Z,19.40
2022-07-30T16:38:45.528Z,19.40
2022-07-30T16:41:13.606Z,19.40
2022-07-30T16:43:41.162Z,19.40
2022-07-30T16:46:08.373Z,19.30
2022-07-30T16:48:35.226Z,19.30
2022-07-30T16:51:02.678Z,19.40
2022-07-30T16:53:30.107Z,19.30
2022-07-30T16:55:58.418Z,19.30
2022-07-30T16:58:30.875Z,19.30
2022-07-30T17:00:58.702Z,19.30
2022-07-30T17:03:25.983Z,19.30
2022-07-30T17:05:53.021Z,19.30
2022-07-30T17:08:25.025Z,19.30
2022-07-30T17:10:53.461Z,19.20
2022-07-30T17:13:21.670Z,19.20
2022-07-30T17:15:48.661Z,19.20
2022-07-30T17:18:16.156Z,19.20
2022-07-30T17:20:43.862Z,19.10
2022-07-30T17:23:11.082Z,19.00
2022-07-30T17:25:37.901Z,19.00
2022-07-30T17:28:05.805Z,18.90
2022-07-30T17:30:32.776Z,18.80
2022-07-30T17:32:59.727Z,18.80
2022-07-30T17:35:26.686Z,18.70
2022-07-30T17:37:53.729Z,18.60
2022-07-30T17:40:28.621Z,18.60
2022-07-30T17:43:03.937Z,18.60
2022-07-30T17:45:35.694Z,18.50
2022-07-30T17:48:03.307Z,18.50
2022-07-30T17:50:31.408Z,18.50
2022-07-30T17:52:58.481Z,18.50
2022-07-30T17:55:28.187Z,18.40
2022-07-30T17:57:55.077Z,18.40
2022-07-30T18:00:22.799Z,18.30
2022-07-30T18:02:49.629Z,18.30
2022-07-30T18:05:16.474Z,18.30
2022-07-30T18:07:44.236Z,18.30
2022-07-30T18:10:12.441Z,18.30
2022-07-30T18:12:39.816Z,18.30
2022-07-30T18:15:19.468Z,18.30
2022-07-30T18:17:46.606Z,18.30
2022-07-30T18:20:14.074Z,18.30
2022-07-30T18:22:41.473Z,18.30
2022-07-30T18:25:19.151Z,18.30
2022-07-30T18:27:47.993Z,18.30
2022-07-30T18:30:16.028Z,18.30
2022-07-30T18:32:46.046Z,18.30
2022-07-30T18:35:14.670Z,18.40
2022-07-30T18:37:45.680Z,18.40
2022-07-30T18:40:19.455Z,18.40
2022-07-30T18:42:49.583Z,18.40
2022-07-30T18:45:17.060Z,18.40
2022-07-30T18:47:44.688Z,18.40
2022-07-30T18:50:14.232Z,18.40
2022-07-30T18:52:41.797Z,18.40
2022-07-30T18:55:11.415Z,18.30
2022-07-30T18:57:38.926Z,18.40
2022-07-30T19:00:08.819Z,18.30
2022-07-30T19:02:39.346Z,18.20
2022-07-30T19:05:08.407Z,18.20
2022-07-30T19:07:55.557Z,18.10
2022-07-30T19:10:23.510Z,18.10
2022-07-30T19:12:54.073Z,18.10
2022-07-30T19:15:21.012Z,18.00
2022-07-30T19:17:53.997Z,18.00
2022-07-30T19:20:23.210Z,18.00
2022-07-30T19:22:50.880Z,17.90
2022-07-30T19:25:21.049Z,17.90
2022-07-30T19:27:48.045Z,17.90
2022-07-30T19:30:15.418Z,17.90
2022-07-30T19:32:43.812Z,17.80
2022-07-30T19:35:13.518Z,17.80
2022-07-30T19:37:41.635Z,17.80
2022-07-30T19:40:09.050Z,17.80
2022-07-30T19:42:36.559Z,17.70
2022-07-30T19:47:56.881Z,17.70
2022-07-30T19:50:27.136Z,17.70
2022-07-30T19:52:54.848Z,17.80
2022-07-30T19:55:35.368Z,17.80
2022-07-30T19:58:16.336Z,17.60
2022-07-30T20:00:50.335Z,17.60
2022-07-30T20:03:25.684Z,17.70
2022-07-30T20:05:58.609Z,17.60
2022-07-30T20:08:27.620Z,17.60
2022-07-30T20:10:57.522Z,17.60
2022-07-30T20:13:45.408Z,17.60
2022-07-30T20:16:16.510Z,17.60
2022-07-30T20:18:46.268Z,17.70
2022-07-30T20:21:16.557Z,17.70
2022-07-30T20:23:44.856Z,17.70
2022-07-30T20:26:14.572Z,17.70
2022-07-30T20:28:45.639Z,17.60
2022-07-30T20:31:13.055Z,17.60
2022-07-30T20:33:40.506Z,17.60
2022-07-30T20:36:09.741Z,17.50
2022-07-30T20:38:38.933Z,17.50
2022-07-30T20:41:10.137Z,17.60
2022-07-30T20:43:45.902Z,17.60
2022-07-30T20:46:20.314Z,17.60
2022-07-30T20:48:47.254Z,17.60
2022-07-30T20:51:15.157Z,17.60
2022-07-30T20:53:45.576Z,17.60
2022-07-30T20:56:13.564Z,17.50
2022-07-30T20:58:41.863Z,17.50
2022-07-30T21:01:15.801Z,17.40
2022-07-30T21:03:48.239Z,17.30
2022-07-30T21:06:16.496Z,17.20
2022-07-30T21:08:43.489Z,17.10
2022-07-30T21:11:10.397Z,17.10
2022-07-30T21:13:39.704Z,16.90
2022-07-30T21:16:15.603Z,16.90
2022-07-30T21:18:49.804Z,16.80
2022-07-30T21:21:28.980Z,16.80
2022-07-30T21:24:05.675Z,16.70
2022-07-30T21:26:35.979Z,16.70
2022-07-30T21:29:05.713Z,16.70
2022-07-30T21:32:01.571Z,16.70
2022-07-30T21:34:20.103Z,16.70
2022-07-30T21:36:53.421Z,16.60
2022-07-30T21:39:20.316Z,16.60
2022-07-30T21:41:56.763Z,16.60
2022-07-30T21:44:24.511Z,16.60
2022-07-30T21:46:52.377Z,16.60
2022-07-30T21:49:20.597Z,16.50
2022-07-30T21:51:47.747Z,16.50
2022-07-30T21:54:17.067Z,16.50
2022-07-30T21:56:58.040Z,16.50
2022-07-30T21:59:25.414Z,16.50
2022-07-30T22:01:55.986Z,16.50
2022-07-30T22:04:24.411Z,16.50
2022-07-30T22:06:54.603Z,16.50
2022-07-30T22:09:34.073Z,16.40
2022-07-30T22:12:09.874Z,16.40
2022-07-30T22:14:39.360Z,16.30
2022-07-30T22:17:22.389Z,16.40
2022-07-30T22:19:50.028Z,16.30
2022-07-30T22:22:27.177Z,16.30
2022-07-30T22:24:57.341Z,16.30
2022-07-30T22:27:25.559Z,16.30
2022-07-30T22:29:55.869Z,16.30
2022-07-30T22:32:26.363Z,16.30
2022-07-30T22:34:54.670Z,16.30
2022-07-30T22:37:25.279Z,16.40
2022-07-30T22:40:01.998Z,16.30
2022-07-30T22:42:29.447Z,16.40
2022-07-30T22:44:57.427Z,16.30
2022-07-30T22:47:50.946Z,16.30
2022-07-30T22:50:11.681Z,16.30
2022-07-30T22:52:40.058Z,16.30
2022-07-30T22:55:16.010Z,16.30
2022-07-30T22:57:49.520Z,16.30
2022-07-30T23:00:28.164Z,16.30
2022-07-30T23:02:56.773Z,16.30
2022-07-30T23:05:27.255Z,16.30
2022-07-30T23:07:55.011Z,16.20
2022-07-30T23:10:23.013Z,16.20
2022-07-30T23:12:15.037Z,17.70
2022-07-30T23:12:53.692Z,16.20
2022-07-30T23:15:21.642Z,16.30
2022-07-30T23:17:48.507Z,16.30
2022-07-30T23:20:18.122Z,16.30
2022-07-30T23:22:44.983Z,16.30
2022-07-30T23:25:12.938Z,16.30
2022-07-30T23:27:40.513Z,16.30
2022-07-30T23:30:09.193Z,16.30
2022-07-30T23:32:36.742Z,16.30
2022-07-30T23:35:04.465Z,16.30
2022-07-30T23:37:48.072Z,16.30
2022-07-30T23:40:19.487Z,16.40
2022-07-30T23:42:47.776Z,16.30
2022-07-30T23:45:14.854Z,16.40
2022-07-30T23:48:02.106Z,16.30
2022-07-30T23:50:29.411Z,16.30
2022-07-30T23:52:56.343Z,16.30
2022-07-30T23:55:23.328Z,16.30
2022-07-30T23:57:50.191Z,16.30
